Time;durP1;ratioP1;P1;durP2;ratioP2;P2;SDS_P1;SDS_P2;PMS_P1;PMS_P2;Temp;Humidity;BMP_temperature;BMP_pressure;BME280_temperature;BME280_humidity;BME280_pressure;Samples;Min_cycle;Max_cycle;Signal;HPM_P1;HPM_P2
2023/03/19 00:01:53;;;;;;;5.55;5.00;;;;;;;11.11;93.53;100930.81;5116170;27;20051;-57
2023/03/19 00:04:18;;;;;;;5.10;4.75;;;;;;;10.90;93.52;100899.28;5115889;27;20026;-57
2023/03/19 00:06:44;;;;;;;5.22;4.85;;;;;;;11.02;94.12;100929.59;5126774;27;20045;-56
2023/03/19 00:09:10;;;;;;;5.78;5.38;;;;;;;10.96;94.18;100910.50;5136382;27;20452;-57
2023/03/19 00:11:35;;;;;;;5.65;5.25;;;;;;;10.99;94.40;100935.13;5154894;27;20079;-57
2023/03/19 00:14:01;;;;;;;5.20;4.82;;;;;;;10.90;94.79;100923.25;5136503;27;20026;-57
2023/03/19 00:16:28;;;;;;;5.10;4.80;;;;;;;10.99;94.51;100932.44;5154315;27;20027;-57
2023/03/19 00:18:54;;;;;;;5.95;5.45;;;;;;;10.90;94.88;100931.22;5136251;27;20031;-57
2023/03/19 00:21:22;;;;;;;5.90;5.40;;;;;;;10.86;95.40;100926.22;5136069;27;20047;-57
2023/03/19 00:23:47;;;;;;;5.82;5.32;;;;;;;10.91;95.58;100935.63;5134898;27;20098;-57
2023/03/19 00:26:13;;;;;;;6.53;5.78;;;;;;;10.86;95.28;100929.72;5132556;27;20464;-56
2023/03/19 00:28:38;;;;;;;6.28;5.68;;;;;;;10.87;95.42;100928.75;5125946;27;20485;-57
2023/03/19 00:31:15;;;;;;;5.80;5.28;;;;;;;11.00;95.47;100946.59;5114938;27;20496;-57
2023/03/19 00:33:41;;;;;;;5.70;5.03;;;;;;;10.97;95.11;100946.81;5134144;27;20023;-57
2023/03/19 00:36:10;;;;;;;6.10;5.57;;;;;;;11.00;95.31;100938.63;5133659;27;20027;-57
2023/03/19 00:38:36;;;;;;;6.25;5.75;;;;;;;10.95;95.77;100946.91;5133205;27;20073;-57
2023/03/19 00:41:06;;;;;;;6.88;6.18;;;;;;;10.94;95.99;100947.84;5134141;27;20047;-57
2023/03/19 00:43:31;;;;;;;;;;;;;;;11.11;93.95;100944.97;5115658;27;20023;-57
2023/03/19 00:45:57;;;;;;;6.57;5.97;;;;;;;11.01;95.25;100943.03;5133074;27;19930;-57
2023/03/19 00:48:23;;;;;;;6.63;6.10;;;;;;;10.93;95.55;100947.97;5133317;27;20393;-57
2023/03/19 00:50:49;;;;;;;6.68;6.15;;;;;;;10.93;95.32;100947.97;5133385;27;20390;-57
2023/03/19 00:53:15;;;;;;;6.68;6.00;;;;;;;10.91;96.01;100946.25;5133114;27;20105;-57
2023/03/19 00:55:40;;;;;;;7.40;6.75;;;;;;;10.82;96.38;100937.97;5132952;27;20107;-57
2023/03/19 00:58:06;;;;;;;6.28;5.78;;;;;;;10.92;95.98;100949.78;5120933;27;20030;-56
2023/03/19 01:00:32;;;;;;;7.03;6.53;;;;;;;10.85;96.45;100954.63;5129116;27;20023;-57
2023/03/19 01:02:58;;;;;;;6.40;5.90;;;;;;;10.74;96.68;100938.47;5115046;27;20027;-57
2023/03/19 01:05:25;;;;;;;7.05;6.45;;;;;;;10.80;96.69;100958.53;5125285;27;20031;-57
2023/03/19 01:07:50;;;;;;;6.80;6.10;;;;;;;10.73;96.33;100950.06;5112153;27;20486;-57
2023/03/19 01:10:21;;;;;;;6.75;6.05;;;;;;;10.74;96.41;100958.91;5125421;27;20144;-57
2023/03/19 01:12:46;;;;;;;7.30;6.80;;;;;;;10.75;96.68;100952.63;5114840;27;20038;-57
2023/03/19 01:15:13;;;;;;;6.97;6.43;;;;;;;10.75;97.05;100953.47;5133206;27;20386;-56
2023/03/19 01:17:38;;;;;;;6.97;6.38;;;;;;;10.72;96.58;100947.50;5114891;27;20027;-57
2023/03/19 01:20:11;;;;;;;7.05;6.40;;;;;;;10.79;96.58;100955.00;5132444;27;20050;-57
2023/03/19 01:22:41;;;;;;;7.28;6.60;;;;;;;10.76;96.72;100955.19;5132817;27;20029;-57
2023/03/19 01:25:08;;;;;;;6.95;6.28;;;;;;;10.71;97.21;100956.41;5132865;27;20015;-57
2023/03/19 01:27:34;;;;;;;7.10;6.50;;;;;;;10.79;96.77;100955.00;5132740;27;20106;-57
2023/03/19 01:30:00;;;;;;;7.13;6.43;;;;;;;10.73;97.18;100954.53;5114334;28;20115;-56
2023/03/19 01:32:28;;;;;;;7.38;6.75;;;;;;;10.74;97.77;100956.25;5115085;27;20038;-56
2023/03/19 01:34:53;;;;;;;7.15;6.45;;;;;;;10.71;96.85;100948.44;5114346;28;20537;-56
2023/03/19 01:37:19;;;;;;;7.28;6.60;;;;;;;10.72;97.36;100955.47;5114367;28;20114;-56
2023/03/19 01:39:45;;;;;;;7.03;6.32;;;;;;;10.69;97.36;100948.53;5114245;28;20031;-56
2023/03/19 01:42:11;;;;;;;6.97;6.38;;;;;;;10.67;97.60;100953.94;5133092;28;20102;-56
2023/03/19 01:44:40;;;;;;;6.88;6.28;;;;;;;10.71;97.58;100953.75;5132339;28;20059;-56
2023/03/19 01:47:31;;;;;;;7.95;7.25;;;;;;;10.72;98.51;100947.50;5132903;28;20023;-56
2023/03/19 01:49:57;;;;;;;7.43;6.82;;;;;;;10.68;97.40;100955.69;5147241;27;20027;-56
2023/03/19 01:52:26;;;;;;;7.63;6.93;;;;;;;10.70;97.29;100952.91;5114325;28;20073;-57
2023/03/19 01:54:54;;;;;;;7.25;6.65;;;;;;;10.64;97.87;100950.63;5132726;28;20485;-57
2023/03/19 01:57:21;;;;;;;7.03;6.53;;;;;;;10.67;97.72;100961.94;5114440;28;20027;-56
2023/03/19 01:59:59;;;;;;;7.57;7.00;;;;;;;10.65;97.84;100953.19;5113542;27;20023;-56
2023/03/19 02:02:33;;;;;;;7.45;6.15;;;;;;;10.66;97.88;100949.59;5132683;27;20030;-56
2023/03/19 02:05:09;;;;;;;7.50;6.60;;;;;;;10.73;98.20;100947.38;5114497;28;20023;-56
2023/03/19 02:07:37;;;;;;;10.10;6.47;;;;;;;10.76;97.94;100951.66;5134012;27;20571;-56
2023/03/19 02:10:07;;;;;;;7.28;6.68;;;;;;;10.66;98.40;100954.91;5136646;27;20449;-57
2023/03/19 02:12:33;;;;;;;7.70;7.00;;;;;;;10.68;97.89;100954.81;5136623;27;20023;-57
2023/03/19 02:14:58;;;;;;;9.07;7.07;;;;;;;10.72;98.37;100952.81;5136223;27;20392;-56
2023/03/19 02:17:24;;;;;;;9.25;6.93;;;;;;;10.71;98.88;100953.75;5136716;27;20113;-56
2023/03/19 02:19:52;;;;;;;7.28;6.68;;;;;;;10.72;98.42;100947.50;5136049;27;20049;-56
2023/03/19 02:22:24;;;;;;;7.72;7.20;;;;;;;10.64;99.34;100954.13;5124245;27;20019;-57
2023/03/19 02:24:50;;;;;;;8.02;7.25;;;;;;;10.66;98.76;100954.91;5147038;27;20440;-57
2023/03/19 02:27:15;;;;;;;7.90;7.20;;;;;;;10.55;98.98;100948.53;5128737;27;20103;-56
2023/03/19 02:29:41;;;;;;;8.15;7.45;;;;;;;10.63;98.86;100955.09;5123487;27;20034;-56
2023/03/19 02:32:06;;;;;;;8.98;8.05;;;;;;;10.63;99.27;100960.41;5135381;27;20023;-56
2023/03/19 02:34:37;;;;;;;8.05;7.22;;;;;;;10.69;99.33;100964.50;5082875;27;20050;-56
2023/03/19 02:37:28;;;;;;;10.00;8.07;;;;;;;10.70;99.25;100955.56;5117815;27;20525;-57
2023/03/19 02:40:03;;;;;;;8.35;7.60;;;;;;;10.62;99.00;100944.56;5135989;27;20076;-57
2023/03/19 02:42:32;;;;;;;7.88;7.22;;;;;;;10.68;98.77;100960.16;5134984;27;20055;-56
2023/03/19 02:45:00;;;;;;;8.55;7.82;;;;;;;10.68;98.81;100960.16;5135334;27;20102;-57
2023/03/19 02:47:26;;;;;;;8.93;7.65;;;;;;;10.69;99.10;100967.16;5117442;27;20470;-57
2023/03/19 02:49:52;;;;;;;8.90;8.00;;;;;;;10.69;99.05;100969.81;5136516;27;20098;-56
2023/03/19 02:52:18;;;;;;;9.38;8.55;;;;;;;10.59;99.52;100960.69;5117487;27;20027;-57
2023/03/19 02:54:44;;;;;;;8.68;7.85;;;;;;;10.64;99.20;100967.44;5135592;27;20100;-56
2023/03/19 02:57:09;;;;;;;8.93;8.13;;;;;;;10.65;99.36;100970.97;5118377;27;20045;-57
2023/03/19 02:59:35;;;;;;;9.10;8.20;;;;;;;10.66;99.29;100964.69;5134959;27;20466;-57
2023/03/19 03:02:00;;;;;;;8.45;7.65;;;;;;;10.68;98.80;100970.78;5135780;27;20370;-56
2023/03/19 03:04:26;;;;;;;8.82;8.13;;;;;;;10.65;99.54;100970.97;5135031;27;20038;-56
2023/03/19 03:06:51;;;;;;;9.23;8.35;;;;;;;10.62;99.00;100973.81;5135707;27;20023;-57
2023/03/19 03:09:17;;;;;;;8.82;8.13;;;;;;;10.62;99.68;100977.34;5119766;27;20599;-56
2023/03/19 03:11:43;;;;;;;9.65;8.30;;;;;;;10.65;99.88;100973.63;5114450;27;20034;-57
2023/03/19 03:14:09;;;;;;;9.23;8.43;;;;;;;10.54;100.00;100960.97;5129963;27;20019;-56
2023/03/19 03:16:34;;;;;;;8.77;8.00;;;;;;;10.62;100.00;100977.34;5112778;27;20477;-57
2023/03/19 03:19:01;;;;;;;10.80;8.45;;;;;;;10.66;99.63;100970.88;5100998;27;20031;-56
2023/03/19 03:21:26;;;;;;;9.65;8.85;;;;;;;10.61;100.00;100970.28;5124502;27;20031;-57
2023/03/19 03:23:52;;;;;;;9.88;9.07;;;;;;;10.60;100.00;100965.91;5125844;27;20031;-57
2023/03/19 03:26:17;;;;;;;9.77;9.02;;;;;;;10.62;100.00;100968.50;5135238;27;20047;-56
2023/03/19 03:28:46;;;;;;;9.57;8.75;;;;;;;10.60;100.00;100973.91;5096651;27;20028;-57
2023/03/19 03:31:12;;;;;;;9.65;8.80;;;;;;;10.59;99.40;100974.88;5114486;27;20413;-57
2023/03/19 03:33:38;;;;;;;9.75;8.90;;;;;;;10.60;99.44;100970.41;5095823;28;20098;-57
2023/03/19 03:36:06;;;;;;;9.38;8.63;;;;;;;10.54;99.88;100974.28;5114187;27;20032;-56
2023/03/19 03:38:32;;;;;;;9.20;8.30;;;;;;;10.58;99.92;100972.28;5114134;27;20027;-57
2023/03/19 03:40:58;;;;;;;9.45;8.75;;;;;;;10.56;99.87;100975.06;5095775;28;20019;-57
2023/03/19 03:43:24;;;;;;;10.15;9.25;;;;;;;10.49;99.75;100972.84;5114146;27;20077;-57
2023/03/19 03:45:49;;;;;;;10.32;9.32;;;;;;;10.39;99.60;100972.56;5113605;27;20027;-57
2023/03/19 03:48:16;;;;;;;9.90;8.90;;;;;;;10.39;100.00;100976.06;5135624;27;20026;-57
2023/03/19 03:50:41;;;;;;;9.50;8.43;;;;;;;10.36;99.79;100978.06;5134007;27;20027;-57
2023/03/19 03:53:07;;;;;;;9.40;8.70;;;;;;;10.33;99.65;100987.06;5127564;27;20119;-56
2023/03/19 03:55:33;;;;;;;9.90;9.05;;;;;;;10.35;100.00;100992.28;5113930;28;20020;-57
2023/03/19 03:57:58;;;;;;;10.40;9.30;;;;;;;10.30;100.00;100992.56;5114534;27;20553;-56
2023/03/19 04:00:24;;;;;;;9.57;8.77;;;;;;;10.22;99.64;100985.00;5128954;27;20023;-56
2023/03/19 04:02:50;;;;;;;9.48;8.65;;;;;;;10.20;99.90;100994.00;5119338;27;20067;-57
2023/03/19 04:05:18;;;;;;;10.32;9.43;;;;;;;10.16;99.62;100995.16;5102257;28;20488;-57
2023/03/19 04:07:43;;;;;;;10.95;9.45;;;;;;;10.11;100.00;100994.56;5125853;27;20055;-57
2023/03/19 04:10:11;;;;;;;10.48;9.57;;;;;;;10.09;100.00;100991.13;5113994;28;20549;-56
2023/03/19 04:12:38;;;;;;;10.70;9.70;;;;;;;10.09;100.00;100991.13;5104832;27;20611;-57
2023/03/19 04:15:11;;;;;;;11.35;10.45;;;;;;;9.94;100.00;100979.59;5132535;27;20026;-57
2023/03/19 04:17:37;;;;;;;10.77;9.98;;;;;;;9.87;100.00;100980.91;5097134;27;20543;-57
2023/03/19 04:20:06;;;;;;;11.20;10.23;;;;;;;9.89;100.00;100989.66;5142036;27;20059;-56
2023/03/19 04:22:32;;;;;;;11.53;10.47;;;;;;;9.94;100.00;100992.88;5113715;27;20475;-56
2023/03/19 04:24:57;;;;;;;11.73;10.73;;;;;;;9.92;100.00;100984.16;5133799;27;20338;-57
2023/03/19 04:27:23;;;;;;;10.95;10.05;;;;;;;9.89;100.00;100993.16;5134079;27;20023;-57
2023/03/19 04:29:49;;;;;;;11.18;10.27;;;;;;;9.81;100.00;100992.75;5114522;27;20022;-57
2023/03/19 04:32:14;;;;;;;11.02;10.10;;;;;;;9.76;100.00;100985.06;5133841;27;20025;-56
2023/03/19 04:34:40;;;;;;;10.95;10.15;;;;;;;9.81;100.00;100991.91;5133971;27;20098;-57
2023/03/19 04:37:06;;;;;;;9.60;8.82;;;;;;;9.67;99.91;100987.38;5133845;27;20099;-57
2023/03/19 04:39:35;;;;;;;11.50;10.32;;;;;;;9.71;100.00;100981.81;5132545;27;20465;-57
2023/03/19 04:42:00;;;;;;;11.80;10.70;;;;;;;9.65;100.00;100987.47;5117716;27;20015;-57
2023/03/19 04:44:28;;;;;;;11.65;10.73;;;;;;;9.74;100.00;100994.06;5114306;27;20023;-57
2023/03/19 04:46:53;;;;;;;11.50;10.60;;;;;;;9.72;100.00;100986.16;5115244;27;20026;-57
2023/03/19 04:49:19;;;;;;;11.60;10.60;;;;;;;9.64;100.00;100991.03;5133439;27;20072;-57
2023/03/19 04:51:45;;;;;;;11.38;10.30;;;;;;;9.62;100.00;100989.41;5114966;27;20019;-56
2023/03/19 04:54:10;;;;;;;11.65;10.52;;;;;;;9.58;100.00;100986.09;5133618;27;20033;-57
2023/03/19 04:56:35;;;;;;;11.43;10.55;;;;;;;9.50;100.00;100996.28;5133793;27;20097;-57
2023/03/19 04:59:01;;;;;;;12.45;11.38;;;;;;;9.36;100.00;100982.94;5114646;27;20019;-57
2023/03/19 05:01:26;;;;;;;12.15;11.15;;;;;;;9.44;100.00;100991.31;5132573;27;20023;-56
2023/03/19 05:03:52;;;;;;;12.80;11.57;;;;;;;9.52;100.00;101013.00;5115116;27;20029;-56
2023/03/19 05:06:18;;;;;;;12.65;11.63;;;;;;;9.45;100.00;101011.63;5133282;27;20473;-57
2023/03/19 05:08:47;;;;;;;12.13;11.05;;;;;;;9.42;100.00;101011.81;5133277;27;20098;-56
2023/03/19 05:11:13;;;;;;;12.65;11.38;;;;;;;9.38;100.00;101013.75;5133106;27;20025;-57
2023/03/19 05:13:38;;;;;;;12.73;11.63;;;;;;;9.44;100.00;101017.88;5115056;27;20011;-57
2023/03/19 05:16:08;;;;;;;11.95;10.88;;;;;;;9.25;100.00;101004.75;5132575;27;20050;-57
2023/03/19 05:18:36;;;;;;;13.13;12.02;;;;;;;9.35;100.00;101000.66;5133000;27;20034;-57
2023/03/19 05:21:03;;;;;;;13.73;12.63;;;;;;;9.37;100.00;101013.84;5132738;27;20078;-57
2023/03/19 05:23:29;;;;;;;13.70;12.43;;;;;;;9.29;100.00;101004.53;5131117;27;20031;-57
2023/03/19 05:25:57;;;;;;;13.85;12.15;;;;;;;9.37;100.00;101016.50;5132770;27;20064;-57
2023/03/19 05:28:22;;;;;;;12.68;11.68;;;;;;;9.27;100.00;101022.31;5132586;27;20030;-57
2023/03/19 05:30:48;;;;;;;13.68;12.32;;;;;;;9.24;100.00;101019.84;5134304;27;20027;-57
2023/03/19 05:33:16;;;;;;;12.43;11.43;;;;;;;9.25;100.00;101024.19;5132850;27;20027;-57
2023/03/19 05:35:41;;;;;;;12.95;11.75;;;;;;;9.20;100.00;101030.69;5133034;27;20027;-57
2023/03/19 05:38:07;;;;;;;13.13;11.93;;;;;;;9.11;100.00;101034.69;5132925;27;20034;-57
2023/03/19 05:40:34;;;;;;;12.98;11.93;;;;;;;9.25;100.00;101034.81;5114161;28;20024;-57
2023/03/19 05:43:00;;;;;;;13.95;12.60;;;;;;;9.22;100.00;101039.44;5113823;28;20586;-57
2023/03/19 05:45:26;;;;;;;13.95;12.75;;;;;;;9.10;100.00;101033.00;5113764;28;20114;-56
2023/03/19 05:47:53;;;;;;;12.70;11.23;;;;;;;9.17;100.00;101038.81;5116933;27;20042;-56
2023/03/19 05:50:19;;;;;;;12.65;11.45;;;;;;;9.01;100.00;101029.03;5153328;27;20533;-57
2023/03/19 05:52:47;;;;;;;12.48;11.43;;;;;;;9.00;100.00;101045.91;5153310;27;20062;-56
2023/03/19 05:55:12;;;;;;;12.48;11.48;;;;;;;9.00;100.00;101045.91;5153174;27;20046;-57
2023/03/19 05:57:38;;;;;;;13.88;12.68;;;;;;;9.01;100.00;101044.09;5134677;27;20057;-57
2023/03/19 06:00:05;;;;;;;11.82;10.73;;;;;;;9.03;100.00;101034.25;5152757;27;20027;-57
2023/03/19 06:02:31;;;;;;;11.32;10.50;;;;;;;9.01;100.00;101042.31;5152671;27;20019;-56
2023/03/19 06:04:57;;;;;;;14.90;13.43;;;;;;;9.13;100.00;101047.91;5117486;27;20067;-57
2023/03/19 06:07:22;;;;;;;13.25;12.05;;;;;;;9.17;100.00;101052.94;5153278;27;20431;-57
2023/03/19 06:09:48;;;;;;;13.80;12.68;;;;;;;9.14;100.00;101046.94;5140899;27;20030;-57
2023/03/19 06:12:13;;;;;;;14.80;13.48;;;;;;;9.20;100.00;101058.06;5113539;28;20022;-56
2023/03/19 06:14:38;;;;;;;14.88;13.68;;;;;;;9.23;100.00;101060.56;5132038;27;20019;-57
2023/03/19 06:17:06;;;;;;;15.23;13.90;;;;;;;9.19;100.00;101056.38;5132416;27;20131;-56
2023/03/19 06:19:32;;;;;;;14.73;13.45;;;;;;;9.18;100.00;101057.31;5132433;27;20023;-56
2023/03/19 06:21:57;;;;;;;15.07;13.65;;;;;;;9.26;100.00;101070.16;5114054;28;20023;-56
2023/03/19 06:24:22;;;;;;;15.27;13.98;;;;;;;9.25;100.00;101071.97;5096913;28;20526;-56
2023/03/19 06:26:48;;;;;;;15.25;13.95;;;;;;;9.24;100.00;101077.38;5113765;27;20398;-57
2023/03/19 06:29:13;;;;;;;16.38;14.88;;;;;;;9.28;100.00;101073.59;5132303;28;20062;-57
2023/03/19 06:31:40;;;;;;;15.70;14.27;;;;;;;9.28;100.00;101076.25;5132047;28;20102;-57
2023/03/19 06:34:06;;;;;;;16.80;15.35;;;;;;;9.31;100.00;101086.69;5132208;27;20466;-56
2023/03/19 06:36:34;;;;;;;17.33;15.82;;;;;;;9.30;100.00;101082.34;5132341;27;20023;-57
2023/03/19 06:38:59;;;;;;;18.05;16.35;;;;;;;9.24;100.00;101082.69;5118378;28;20063;-57
2023/03/19 06:41:25;;;;;;;18.10;16.55;;;;;;;9.25;100.00;101079.06;5130739;27;20150;-57
2023/03/19 06:43:50;;;;;;;17.75;16.15;;;;;;;9.28;100.00;101089.53;5112556;28;20055;-57
2023/03/19 06:46:16;;;;;;;18.85;17.25;;;;;;;9.26;100.00;101092.25;5131723;28;20599;-57
2023/03/19 06:48:41;;;;;;;18.45;16.77;;;;;;;9.26;100.00;101091.41;5113322;28;20109;-57
2023/03/19 06:51:06;;;;;;;20.15;17.45;;;;;;;9.17;100.00;101081.28;5121697;28;20020;-56
2023/03/19 06:53:32;;;;;;;18.65;16.95;;;;;;;9.27;100.00;101101.94;5127888;27;20616;-57
2023/03/19 06:55:57;;;;;;;18.73;17.02;;;;;;;9.30;100.00;101098.28;5131990;27;20393;-56
2023/03/19 06:58:23;;;;;;;19.10;17.20;;;;;;;9.36;100.00;101099.75;5135756;27;20019;-57
2023/03/19 07:00:48;;;;;;;18.63;16.88;;;;;;;9.38;100.00;101100.50;5134888;27;20015;-56
2023/03/19 07:03:16;;;;;;;19.58;17.92;;;;;;;9.51;100.00;101104.22;5115983;27;20034;-57
2023/03/19 07:05:42;;;;;;;18.58;16.77;;;;;;;9.54;100.00;101104.03;5134367;27;20019;-57
2023/03/19 07:08:10;;;;;;;19.27;17.60;;;;;;;9.64;100.00;101099.94;5116996;27;20076;-56
2023/03/19 07:10:37;;;;;;;18.52;16.83;;;;;;;9.72;100.00;101108.34;5134980;27;20019;-56
2023/03/19 07:13:04;;;;;;;19.23;17.40;;;;;;;9.89;100.00;101103.91;5117151;27;20033;-57
2023/03/19 07:15:31;;;;;;;18.08;16.38;;;;;;;9.94;100.00;101109.78;5116290;27;20047;-56
2023/03/19 07:17:57;;;;;;;17.90;16.33;;;;;;;10.06;100.00;101125.06;5135320;27;20019;-57
2023/03/19 07:20:22;;;;;;;18.45;16.83;;;;;;;10.15;100.00;101115.72;5116304;27;20134;-57
2023/03/19 07:22:51;;;;;;;17.85;16.35;;;;;;;10.28;100.00;101131.84;5116573;27;20019;-57
2023/03/19 07:25:16;;;;;;;17.25;15.68;;;;;;;10.35;100.00;101123.44;5134615;27;20058;-57
2023/03/19 07:27:43;;;;;;;18.52;16.73;;;;;;;10.41;100.00;101132.84;5135611;27;20110;-57
2023/03/19 07:30:09;;;;;;;18.30;16.67;;;;;;;10.48;100.00;101136.00;5134696;27;20023;-57
2023/03/19 07:32:35;;;;;;;16.83;15.23;;;;;;;10.53;100.00;101134.81;5134777;27;20537;-57
2023/03/19 07:35:01;;;;;;;18.05;16.48;;;;;;;10.61;100.00;101140.50;5116359;27;20051;-57
2023/03/19 07:37:26;;;;;;;16.90;15.35;;;;;;;10.76;100.00;101137.91;5134665;27;20054;-57
2023/03/19 07:39:51;;;;;;;16.77;14.90;;;;;;;10.81;99.70;101144.66;5134147;27;20031;-57
2023/03/19 07:42:17;;;;;;;15.75;13.85;;;;;;;10.86;98.21;101145.25;5115610;27;20110;-57
2023/03/19 07:44:42;;;;;;;16.05;14.27;;;;;;;10.95;97.64;101146.50;5116211;27;20106;-58
2023/03/19 07:47:08;;;;;;;15.35;13.85;;;;;;;11.11;97.32;101152.59;5135226;27;20498;-57
2023/03/19 07:49:33;;;;;;;15.43;13.68;;;;;;;11.24;96.56;101149.22;5115877;27;20560;-57
2023/03/19 07:51:58;;;;;;;14.43;12.85;;;;;;;11.40;96.50;101157.97;5134432;27;20033;-57
2023/03/19 07:54:24;;;;;;;16.33;13.52;;;;;;;11.45;93.91;101147.91;5133885;27;20466;-57
2023/03/19 07:56:49;;;;;;;17.65;13.15;;;;;;;11.53;93.49;101161.59;5116001;27;20106;-57
2023/03/19 07:59:17;;;;;;;18.50;11.60;;;;;;;11.59;91.63;101155.91;5134430;27;20035;-57
2023/03/19 08:01:42;;;;;;;20.05;12.52;;;;;;;11.54;92.84;101157.97;5116159;27;20022;-57
2023/03/19 08:04:08;;;;;;;14.32;12.70;;;;;;;11.52;91.53;101157.22;5134330;27;20101;-57
2023/03/19 08:06:33;;;;;;;17.70;12.15;;;;;;;11.57;92.26;101157.78;5115065;27;20030;-57
2023/03/19 08:08:59;;;;;;;17.30;13.18;;;;;;;11.53;92.23;101163.38;5134079;27;20034;-56
2023/03/19 08:11:28;;;;;;;21.60;12.07;;;;;;;11.48;91.25;101170.81;5115727;27;20026;-57
2023/03/19 08:13:54;;;;;;;;;;;;;;;11.51;92.14;101170.63;5121882;27;20359;-57
2023/03/19 08:16:20;;;;;;;15.02;12.40;;;;;;;11.16;91.79;101159.47;5113731;27;20040;-56
2023/03/19 08:18:45;;;;;;;17.80;13.15;;;;;;;11.13;91.78;101171.16;5098358;27;20504;-57
2023/03/19 08:21:11;;;;;;;18.33;13.27;;;;;;;10.97;93.06;101167.69;5133457;27;20513;-56
2023/03/19 08:23:36;;;;;;;19.05;12.73;;;;;;;10.97;93.82;101173.00;5107791;28;20042;-57
2023/03/19 08:26:01;;;;;;;15.60;13.93;;;;;;;10.99;93.81;101177.31;5130757;27;20118;-57
2023/03/19 08:28:27;;;;;;;22.73;14.00;;;;;;;10.98;93.51;101170.28;5115621;27;20019;-57
2023/03/19 08:30:54;;;;;;;18.58;15.20;;;;;;;11.10;92.92;101190.84;5133329;27;20026;-57
2023/03/19 08:33:20;;;;;;;21.80;15.43;;;;;;;11.36;92.31;101183.94;5132065;27;20082;-57
2023/03/19 08:35:45;;;;;;;15.65;13.30;;;;;;;11.66;91.97;101180.34;5131572;27;20117;-57
2023/03/19 08:38:11;;;;;;;16.42;12.90;;;;;;;11.70;88.65;101184.50;5134026;27;20034;-57
2023/03/19 08:40:36;;;;;;;22.92;12.30;;;;;;;11.70;87.40;101194.31;5095575;28;20580;-57
2023/03/19 08:43:02;;;;;;;18.55;12.52;;;;;;;11.67;88.34;101190.03;5112881;27;20032;-57
2023/03/19 08:45:28;;;;;;;20.17;13.23;;;;;;;11.88;88.99;101198.53;5132309;27;20386;-57
2023/03/19 08:47:54;;;;;;;15.48;11.75;;;;;;;11.96;87.34;101198.03;5133817;27;20037;-57
2023/03/19 08:50:19;;;;;;;16.40;11.52;;;;;;;12.01;86.75;101198.63;5110676;27;20049;-57
2023/03/19 08:52:45;;;;;;;16.75;11.40;;;;;;;12.05;86.74;101202.78;5128572;27;20183;-57
2023/03/19 08:55:11;;;;;;;19.98;11.95;;;;;;;11.94;86.64;101195.50;5132209;27;20031;-57
2023/03/19 08:57:36;;;;;;;14.35;10.93;;;;;;;11.95;86.77;101209.69;5124459;27;20072;-57
2023/03/19 09:00:08;;;;;;;19.02;9.52;;;;;;;11.74;85.94;101215.38;5131634;27;20111;-57
2023/03/19 09:02:33;;;;;;;14.43;9.30;;;;;;;11.68;86.34;101220.22;5109296;27;20080;-57
2023/03/19 09:04:58;;;;;;;20.92;10.02;;;;;;;11.54;87.01;101210.41;5119815;27;20476;-57
2023/03/19 09:07:24;;;;;;;21.40;10.18;;;;;;;11.64;86.15;101208.03;5125815;27;20031;-56
2023/03/19 09:09:49;;;;;;;18.02;10.40;;;;;;;11.68;84.64;101223.75;5132993;27;20023;-57
2023/03/19 09:12:16;;;;;;;24.40;10.32;;;;;;;11.73;84.77;101226.09;5133393;27;20566;-57
2023/03/19 09:14:42;;;;;;;18.75;10.27;;;;;;;11.92;84.54;101218.72;5132922;27;20054;-57
2023/03/19 09:17:09;;;;;;;17.08;9.13;;;;;;;12.19;83.10;101221.44;5097307;27;20501;-57
2023/03/19 09:19:35;;;;;;;22.00;10.07;;;;;;;12.52;83.44;101227.38;5114005;27;20054;-57
2023/03/19 09:22:02;;;;;;;17.38;9.30;;;;;;;12.83;82.35;101234.22;5131741;27;20043;-57
2023/03/19 09:24:27;;;;;;;17.88;9.25;;;;;;;12.96;79.11;101225.28;5125854;27;20027;-57
2023/03/19 09:26:53;;;;;;;20.05;9.38;;;;;;;13.22;80.12;101233.34;5112664;28;20091;-57
2023/03/19 09:29:18;;;;;;;15.77;9.15;;;;;;;13.50;80.05;101226.13;5112329;28;20016;-57
2023/03/19 09:31:44;;;;;;;19.25;9.32;;;;;;;13.79;79.96;101224.09;5130378;27;20027;-57
2023/03/19 09:34:09;;;;;;;18.58;9.43;;;;;;;14.09;78.48;101223.75;5114402;27;20466;-57
2023/03/19 09:36:36;;;;;;;17.77;9.38;;;;;;;14.30;80.60;101242.75;5132651;27;20091;-57
2023/03/19 09:39:04;;;;;;;18.58;9.15;;;;;;;14.40;75.88;101249.13;5132878;27;20420;-57
2023/03/19 09:41:58;;;;;;;19.45;8.38;;;;;;;14.67;76.21;101245.44;5123557;27;20027;-57
2023/03/19 09:44:31;;;;;;;15.20;8.13;;;;;;;14.77;75.64;101243.78;5112178;28;20062;-57
2023/03/19 09:47:03;;;;;;;18.52;8.65;;;;;;;14.84;74.54;101252.22;5112313;28;20030;-57
2023/03/19 09:49:41;;;;;;;14.50;8.00;;;;;;;14.86;72.52;101252.97;5111961;28;20020;-57
2023/03/19 09:52:33;;;;;;;12.30;7.30;;;;;;;15.14;73.66;101254.41;5112336;28;20031;-57
2023/03/19 09:55:22;;;;;;;17.08;7.68;;;;;;;14.92;69.86;101250.69;5127905;28;20103;-57
2023/03/19 09:57:48;;;;;;;15.20;6.80;;;;;;;14.92;69.42;101255.19;5102471;28;20066;-57
2023/03/19 10:00:26;;;;;;;13.52;7.05;;;;;;;14.98;70.92;101257.41;5111448;28;20107;-57
2023/03/19 10:03:07;;;;;;;13.20;6.20;;;;;;;15.13;69.43;101258.06;5112309;28;20483;-57
2023/03/19 10:06:01;;;;;;;14.73;6.47;;;;;;;15.16;69.47;101261.38;5093346;28;20031;-57
2023/03/19 10:08:50;;;;;;;15.95;6.95;;;;;;;15.04;70.01;101267.66;5089733;28;20055;-57
2023/03/19 10:11:16;;;;;;;13.80;6.63;;;;;;;14.95;69.05;101263.84;5122299;28;20485;-57
2023/03/19 10:13:44;;;;;;;19.08;7.45;;;;;;;14.88;69.04;101267.97;5114152;28;20035;-57
2023/03/19 10:16:18;;;;;;;14.15;6.78;;;;;;;15.04;72.85;101264.13;5132011;27;20119;-57
2023/03/19 10:18:48;;;;;;;15.45;6.63;;;;;;;15.41;69.70;101268.41;5132273;28;20493;-58
2023/03/19 10:21:33;;;;;;;15.25;6.38;;;;;;;15.92;69.56;101271.69;5131192;27;20497;-57
2023/03/19 10:24:21;;;;;;;13.10;6.60;;;;;;;15.97;68.35;101269.47;5113391;28;20023;-57
2023/03/19 10:26:47;;;;;;;14.98;6.40;;;;;;;15.98;65.03;101266.69;5132437;28;20557;-57
2023/03/19 10:29:21;;;;;;;12.25;5.78;;;;;;;16.07;65.68;101274.00;5134757;27;20027;-57
2023/03/19 10:32:11;;;;;;;13.43;6.03;;;;;;;16.34;65.56;101272.75;5134133;27;20133;-57
2023/03/19 10:34:44;;;;;;;12.55;5.50;;;;;;;16.48;63.60;101274.34;5135267;27;20041;-57
2023/03/19 10:37:21;;;;;;;13.55;6.28;;;;;;;16.49;63.00;101273.34;5116513;27;20034;-57
2023/03/19 10:39:51;;;;;;;14.25;6.32;;;;;;;16.26;65.00;101280.56;5134646;27;20019;-58
2023/03/19 10:42:30;;;;;;;10.13;5.55;;;;;;;16.44;64.65;101278.25;5136111;27;20019;-57
2023/03/19 10:45:28;;;;;;;15.52;6.20;;;;;;;16.70;64.27;101273.44;5100752;27;20033;-57
2023/03/19 10:47:58;;;;;;;14.38;5.70;;;;;;;16.64;62.83;101280.16;5126993;27;20100;-57
2023/03/19 10:51:05;;;;;;;15.05;5.50;;;;;;;16.74;64.63;101291.88;5135863;27;20011;-57
2023/03/19 10:53:38;;;;;;;11.80;5.30;;;;;;;16.56;65.71;101283.47;5044154;28;20033;-57
2023/03/19 10:56:24;;;;;;;15.38;5.68;;;;;;;16.38;66.02;101276.06;5051217;28;20044;-58
2023/03/19 10:58:59;;;;;;;14.10;5.50;;;;;;;16.39;64.87;101286.69;5103205;27;20039;-57
2023/03/19 11:01:34;;;;;;;14.93;5.85;;;;;;;16.47;65.30;101289.59;5104108;27;20537;-57
2023/03/19 11:04:10;;;;;;;15.15;6.10;;;;;;;17.03;65.90;101277.91;5114716;27;20038;-57
2023/03/19 11:06:37;;;;;;;13.90;5.20;;;;;;;17.46;61.67;101287.69;5118438;27;20032;-57
2023/03/19 11:09:18;;;;;;;14.23;4.75;;;;;;;17.82;60.95;101283.72;5120929;27;20034;-57
2023/03/19 11:11:57;;;;;;;11.88;5.10;;;;;;;18.19;60.21;101295.81;5114935;27;20092;-57
2023/03/19 11:14:38;;;;;;;10.68;4.63;;;;;;;18.33;57.52;101295.44;5115819;27;20385;-58
2023/03/19 11:17:06;;;;;;;11.15;4.65;;;;;;;17.70;58.19;101293.66;5135051;27;20023;-57
2023/03/19 11:19:39;;;;;;;7.93;4.70;;;;;;;17.14;60.12;101301.16;5135305;27;20065;-57
2023/03/19 11:22:16;;;;;;;11.23;5.38;;;;;;;16.62;61.20;101311.69;5135325;27;20047;-57